createdAt,value
2022-12-18T00:00:08.177Z,102782.31
2022-12-18T00:00:45.899Z,102779.13
2022-12-18T00:01:25.969Z,102783.09
2022-12-18T00:02:00.594Z,102784.47
2022-12-18T00:02:32.897Z,102778.44
2022-12-18T00:03:04.725Z,102775.84
2022-12-18T00:03:37.188Z,102769.09
2022-12-18T00:04:17.747Z,102775.75
2022-12-18T00:04:49.384Z,102772.38
2022-12-18T00:05:20.915Z,102773.50
2022-12-18T00:05:53.237Z,102768.38
2022-12-18T00:06:26.003Z,102770.00
2022-12-18T00:06:57.858Z,102767.41
2022-12-18T00:07:29.500Z,102771.16
2022-12-18T00:08:01.121Z,102777.59
2022-12-18T00:08:33.578Z,102769.09
2022-12-18T00:09:05.075Z,102765.88
2022-12-18T00:09:40.034Z,102773.38
2022-12-18T00:10:12.096Z,102772.94
2022-12-18T00:10:51.180Z,102769.63
2022-12-18T00:11:26.842Z,102770.53
2022-12-18T00:11:58.406Z,102768.50
2022-12-18T00:12:30.493Z,102771.47
2022-12-18T00:13:05.182Z,102774.59
2022-12-18T00:13:40.638Z,102778.88
2022-12-18T00:14:13.774Z,102775.72
2022-12-18T00:14:45.391Z,102771.66
2022-12-18T00:15:16.971Z,102779.75
2022-12-18T00:15:48.561Z,102776.44
2022-12-18T00:16:22.441Z,102774.88
2022-12-18T00:16:54.077Z,102778.56
2022-12-18T00:17:25.696Z,102774.72
2022-12-18T00:17:57.206Z,102777.38
2022-12-18T00:18:28.685Z,102777.50
2022-12-18T00:19:01.090Z,102780.63
2022-12-18T00:19:32.640Z,102782.28
2022-12-18T00:20:04.717Z,102778.16
2022-12-18T00:20:42.935Z,102778.38
2022-12-18T00:21:15.400Z,102783.34
2022-12-18T00:21:46.987Z,102779.41
2022-12-18T00:22:18.499Z,102791.97
2022-12-18T00:22:53.321Z,102790.19
2022-12-18T00:23:24.802Z,102790.00
2022-12-18T00:23:56.318Z,102792.38
2022-12-18T00:24:27.892Z,102796.63
2022-12-18T00:24:59.398Z,102792.19
2022-12-18T00:25:30.971Z,102791.13
2022-12-18T00:26:04.533Z,102793.84
2022-12-18T00:26:37.581Z,102789.78
2022-12-18T00:27:10.193Z,102794.94
2022-12-18T00:27:41.698Z,102789.44
2022-12-18T00:28:13.201Z,102791.81
2022-12-18T00:28:45.140Z,102794.22
2022-12-18T00:29:16.710Z,102795.91
2022-12-18T00:29:49.226Z,102794.22
2022-12-18T00:30:20.907Z,102784.53
2022-12-18T00:30:52.529Z,102783.84
2022-12-18T00:31:25.517Z,102778.66
2022-12-18T00:31:58.579Z,102773.38
2022-12-18T00:32:30.440Z,102773.53
2022-12-18T00:33:03.113Z,102770.53
2022-12-18T00:33:35.239Z,102770.59
2022-12-18T00:34:07.055Z,102770.19
2022-12-18T00:34:38.554Z,102767.44
2022-12-18T00:35:10.086Z,102771.91
2022-12-18T00:35:41.599Z,102772.13
2022-12-18T00:36:14.082Z,102767.13
2022-12-18T00:36:48.567Z,102765.72
2022-12-18T00:37:20.534Z,102765.66
2022-12-18T00:37:56.183Z,102762.84
2022-12-18T00:38:28.757Z,102757.91
2022-12-18T00:39:01.619Z,102764.72
2022-12-18T00:39:33.274Z,102761.84
2022-12-18T00:40:05.534Z,102758.78
2022-12-18T00:40:37.237Z,102762.50
2022-12-18T00:41:09.666Z,102762.13
2022-12-18T00:42:00.076Z,102754.63
2022-12-18T00:42:50.113Z,102761.53
2022-12-18T00:43:21.841Z,102767.34
2022-12-18T00:43:53.563Z,102761.50
2022-12-18T00:44:25.087Z,102759.94
2022-12-18T00:44:56.564Z,102761.06
2022-12-18T00:45:31.836Z,102763.59
2022-12-18T00:46:04.065Z,102762.88
2022-12-18T00:46:37.062Z,102762.22
2022-12-18T00:47:08.661Z,102760.28
2022-12-18T00:47:41.256Z,102752.41
2022-12-18T00:48:12.795Z,102759.44
2022-12-18T00:48:44.473Z,102756.75
2022-12-18T00:49:18.819Z,102756.69
2022-12-18T00:49:51.251Z,102753.28
2022-12-18T00:50:24.703Z,102756.13
2022-12-18T00:50:56.200Z,102753.16
2022-12-18T00:51:28.223Z,102753.72
2022-12-18T00:51:59.853Z,102749.66
2022-12-18T00:52:31.360Z,102753.94
2022-12-18T00:53:02.875Z,102753.88
2022-12-18T00:53:34.340Z,102756.41
2022-12-18T00:54:05.910Z,102756.13
2022-12-18T00:54:37.433Z,102747.41
2022-12-18T00:55:09.418Z,102744.66
2022-12-18T00:55:41.845Z,102740.44
2022-12-18T00:56:13.367Z,102747.81
2022-12-18T00:56:49.366Z,102750.03
2022-12-18T00:57:21.597Z,102750.34
2022-12-18T00:57:53.576Z,102752.94
2022-12-18T00:58:25.098Z,102752.03
2022-12-18T00:58:57.733Z,102745.38
2022-12-18T00:59:29.309Z,102748.59
2022-12-18T01:00:00.868Z,102751.09
2022-12-18T01:00:32.464Z,102754.53
2022-12-18T01:01:08.261Z,102754.41
2022-12-18T01:01:40.137Z,102758.00
2022-12-18T01:02:14.530Z,102754.69
2022-12-18T01:02:46.183Z,102760.69
2022-12-18T01:03:18.088Z,102756.38
2022-12-18T01:03:49.751Z,102756.16
2022-12-18T01:04:21.579Z,102764.75
2022-12-18T01:04:53.146Z,102756.84
2022-12-18T01:05:25.407Z,102753.63
2022-12-18T01:05:57.932Z,102763.13
2022-12-18T01:06:29.661Z,102757.22
2022-12-18T01:07:01.467Z,102758.63
2022-12-18T01:07:33.032Z,102763.06
2022-12-18T01:08:04.806Z,102756.69
2022-12-18T01:08:36.885Z,102757.53
2022-12-18T01:09:08.742Z,102759.50
2022-12-18T01:09:41.927Z,102760.50
2022-12-18T01:10:19.491Z,102756.91
2022-12-18T01:10:50.983Z,102761.59
2022-12-18T01:11:23.293Z,102754.41
2022-12-18T01:11:54.807Z,102754.22
2022-12-18T01:12:26.307Z,102755.53
2022-12-18T01:12:57.918Z,102764.59
2022-12-18T01:13:29.401Z,102756.53
2022-12-18T01:14:01.117Z,102760.91
2022-12-18T01:14:32.640Z,102760.13
2022-12-18T01:15:06.230Z,102760.91
2022-12-18T01:15:37.909Z,102757.84
2022-12-18T01:16:12.603Z,102767.44
2022-12-18T01:16:44.527Z,102765.88
2022-12-18T01:17:17.342Z,102765.88
2022-12-18T01:17:49.147Z,102767.75
2022-12-18T01:18:20.660Z,102769.94
2022-12-18T01:18:54.622Z,102765.56
2022-12-18T01:19:26.314Z,102762.97
2022-12-18T01:19:57.824Z,102768.25
2022-12-18T01:20:29.357Z,102767.69
2022-12-18T01:21:00.906Z,102761.69
2022-12-18T01:21:32.439Z,102758.00
2022-12-18T01:22:08.799Z,102767.84
2022-12-18T01:22:40.794Z,102763.69
2022-12-18T01:23:12.708Z,102759.31
2022-12-18T01:23:47.426Z,102752.94
2022-12-18T01:24:18.927Z,102758.50
2022-12-18T01:24:51.302Z,102754.22
2022-12-18T01:25:22.948Z,102752.63
2022-12-18T01:25:55.886Z,102754.72
2022-12-18T01:26:30.404Z,102744.66
2022-12-18T01:27:02.213Z,102748.25
2022-12-18T01:27:34.504Z,102746.13
2022-12-18T01:28:08.414Z,102752.19
2022-12-18T01:28:41.095Z,102747.66
2022-12-18T01:29:12.794Z,102744.81
2022-12-18T01:29:44.397Z,102745.56
2022-12-18T01:30:16.033Z,102741.19
2022-12-18T01:30:47.568Z,102746.97
2022-12-18T01:31:27.555Z,102743.81
2022-12-18T01:31:59.708Z,102741.38
2022-12-18T01:32:32.100Z,102744.19
2022-12-18T01:33:05.758Z,102746.53
2022-12-18T01:33:37.476Z,102745.19
2022-12-18T01:34:11.399Z,102745.34
2022-12-18T01:34:42.983Z,102753.22
2022-12-18T01:35:15.627Z,102749.22
2022-12-18T01:35:47.135Z,102752.78
2022-12-18T01:36:21.978Z,102750.34
2022-12-18T01:36:53.561Z,102756.25
2022-12-18T01:37:25.406Z,102752.00
2022-12-18T01:37:56.972Z,102749.78
2022-12-18T01:38:29.410Z,102748.28
2022-12-18T01:39:10.355Z,102758.56
2022-12-18T01:39:41.812Z,102749.13
2022-12-18T01:40:13.371Z,102751.28
2022-12-18T01:40:44.867Z,102746.53
2022-12-18T01:41:20.560Z,102756.50
2022-12-18T01:42:07.017Z,102748.81
2022-12-18T01:42:38.577Z,102748.97
2022-12-18T01:43:10.356Z,102746.53
2022-12-18T01:43:58.306Z,102747.19
2022-12-18T01:44:57.457Z,102745.94
2022-12-18T01:45:32.081Z,102737.69
2022-12-18T01:46:04.258Z,102743.75
2022-12-18T01:46:36.201Z,102745.88
2022-12-18T01:47:07.832Z,102743.88
2022-12-18T01:47:51.146Z,102748.81
2022-12-18T01:48:22.671Z,102745.09
2022-12-18T01:49:02.324Z,102741.81
2022-12-18T01:49:33.806Z,102752.16
2022-12-18T01:50:09.874Z,102743.50
2022-12-18T01:50:43.375Z,102742.06
2022-12-18T01:51:15.765Z,102740.72
2022-12-18T01:51:47.319Z,102747.16
2022-12-18T01:52:20.086Z,102739.47
2022-12-18T01:52:55.254Z,102746.13
2022-12-18T01:53:26.792Z,102751.06
2022-12-18T01:54:00.572Z,102751.56
2022-12-18T01:54:32.062Z,102753.50
2022-12-18T01:55:05.570Z,102756.72
2022-12-18T01:55:52.486Z,102757.66
2022-12-18T01:56:24.045Z,102752.97
2022-12-18T01:56:55.585Z,102759.25
2022-12-18T01:57:28.174Z,102755.00
2022-12-18T01:58:00.639Z,102760.16
2022-12-18T01:58:38.240Z,102761.25
2022-12-18T01:59:11.709Z,102761.19
2022-12-18T01:59:44.356Z,102765.34
2022-12-18T02:00:18.687Z,102760.25
2022-12-18T02:00:50.256Z,102760.44
2022-12-18T02:01:25.343Z,102758.84
2022-12-18T02:01:57.719Z,102763.84
2022-12-18T02:02:30.310Z,102755.38
2022-12-18T02:03:02.839Z,102757.16
2022-12-18T02:03:34.518Z,102752.19
2022-12-18T02:04:26.285Z,102751.34
2022-12-18T02:04:58.152Z,102759.34
2022-12-18T02:05:38.259Z,102749.13
2022-12-18T02:06:18.286Z,102750.66
2022-12-18T02:06:52.191Z,102747.06
2022-12-18T02:07:33.318Z,102748.13
2022-12-18T02:08:12.086Z,102756.16
2022-12-18T02:08:44.416Z,102747.63
2022-12-18T02:09:21.012Z,102760.44
2022-12-18T02:10:18.737Z,102751.28
2022-12-18T02:11:02.062Z,102754.75
2022-12-18T02:11:45.622Z,102753.16
2022-12-18T02:12:25.975Z,102752.72
2022-12-18T02:13:22.033Z,102751.81
2022-12-18T02:13:56.218Z,102755.19
2022-12-18T02:14:27.807Z,102751.16
2022-12-18T02:15:14.184Z,102747.38
2022-12-18T02:16:27.555Z,102755.97
2022-12-18T02:16:59.093Z,102760.13
2022-12-18T02:17:39.411Z,102762.56
2022-12-18T02:18:28.654Z,102761.63
2022-12-18T02:19:08.000Z,102752.00
2022-12-18T02:19:48.570Z,102763.22
2022-12-18T02:20:34.877Z,102759.66
2022-12-18T02:21:24.935Z,102761.72
2022-12-18T02:22:21.045Z,102761.00
2022-12-18T02:22:58.400Z,102755.75
2022-12-18T02:23:57.710Z,102761.44
2022-12-18T02:24:37.444Z,102762.72
2022-12-18T02:25:11.677Z,102760.44
2022-12-18T02:26:02.254Z,102767.28
2022-12-18T02:26:48.222Z,102766.59
2022-12-18T02:27:19.961Z,102756.44
2022-12-18T02:27:52.093Z,102758.25
2022-12-18T02:28:29.584Z,102763.41
2022-12-18T02:29:08.122Z,102757.78
2022-12-18T02:29:58.518Z,102757.97
2022-12-18T02:30:35.105Z,102746.94
2022-12-18T02:31:09.999Z,102747.94
2022-12-18T02:31:45.749Z,102760.81
2022-12-18T02:32:23.012Z,102754.81
2022-12-18T02:32:55.820Z,102753.13
2022-12-18T02:33:28.781Z,102748.84
2022-12-18T02:34:03.950Z,102748.94
2022-12-18T02:34:41.249Z,102748.31
2022-12-18T02:35:22.321Z,102751.06
2022-12-18T02:35:58.169Z,102752.94
2022-12-18T02:36:33.409Z,102752.78
2022-12-18T02:37:08.903Z,102755.09
2022-12-18T02:37:41.495Z,102754.09
2022-12-18T02:38:13.525Z,102753.25
2022-12-18T02:38:46.921Z,102761.22
2022-12-18T02:39:22.786Z,102761.31
2022-12-18T02:40:04.710Z,102759.66
2022-12-18T02:40:39.138Z,102758.91
2022-12-18T02:41:15.249Z,102766.38
2022-12-18T02:41:47.663Z,102757.44
2022-12-18T02:42:19.726Z,102757.81
2022-12-18T02:42:53.189Z,102760.03
2022-12-18T02:43:25.389Z,102758.38
2022-12-18T02:44:02.581Z,102754.50
2022-12-18T02:44:44.316Z,102759.00
2022-12-18T02:45:15.947Z,102768.88
2022-12-18T02:45:56.062Z,102769.94
2022-12-18T02:46:36.706Z,102764.97
2022-12-18T02:47:15.077Z,102768.53
2022-12-18T02:47:50.067Z,102768.50
2022-12-18T02:48:33.932Z,102762.69
2022-12-18T02:49:17.349Z,102766.97
2022-12-18T02:50:09.556Z,102764.47
2022-12-18T02:50:46.839Z,102760.06
2022-12-18T02:51:32.192Z,102763.66
2022-12-18T02:52:13.963Z,102757.91
2022-12-18T02:52:57.870Z,102763.66
2022-12-18T02:53:38.463Z,102762.28
2022-12-18T02:54:19.321Z,102753.13
2022-12-18T02:55:08.879Z,102757.13
2022-12-18T02:55:57.902Z,102760.34
2022-12-18T02:56:37.639Z,102764.84
2022-12-18T02:57:19.381Z,102762.69
2022-12-18T02:57:58.509Z,102759.31
2022-12-18T02:58:44.948Z,102763.22
2022-12-18T02:59:49.513Z,102760.25
2022-12-18T03:00:29.990Z,102758.75
2022-12-18T03:01:10.257Z,102758.03
2022-12-18T03:01:53.372Z,102756.44
2022-12-18T03:02:38.568Z,102756.19
2022-12-18T03:03:37.694Z,102753.16
2022-12-18T03:04:24.398Z,102757.84
2022-12-18T03:05:22.410Z,102751.75
2022-12-18T03:05:58.840Z,102746.75
2022-12-18T03:06:37.073Z,102753.09
2022-12-18T03:07:15.641Z,102747.88
2022-12-18T03:07:54.067Z,102750.38
2022-12-18T03:08:28.994Z,102754.38
2022-12-18T03:09:09.403Z,102752.00
2022-12-18T03:09:47.594Z,102746.00
2022-12-18T03:10:22.930Z,102748.50
2022-12-18T03:11:04.212Z,102741.38
2022-12-18T03:11:59.786Z,102747.59
2022-12-18T03:12:34.174Z,102749.59
2022-12-18T03:13:07.653Z,102742.94
2022-12-18T03:13:45.596Z,102742.22
2022-12-18T03:14:21.256Z,102739.66
2022-12-18T03:15:06.048Z,102744.03
2022-12-18T03:15:40.507Z,102746.66
2022-12-18T03:16:23.418Z,102744.97
2022-12-18T03:16:58.908Z,102743.28
2022-12-18T03:17:32.566Z,102741.34
2022-12-18T03:18:07.846Z,102749.69
2022-12-18T03:19:02.232Z,102747.69
2022-12-18T03:19:35.232Z,102745.88
2022-12-18T03:20:13.469Z,102745.91
2022-12-18T03:20:47.212Z,102741.25
2022-12-18T03:21:28.078Z,102745.78
2022-12-18T03:22:03.289Z,102748.94
2022-12-18T03:22:44.320Z,102748.31
2022-12-18T03:23:26.130Z,102736.78
2022-12-18T03:23:59.012Z,102745.06
2022-12-18T03:24:32.623Z,102747.91
2022-12-18T03:25:07.728Z,102754.72
2022-12-18T03:25:42.564Z,102748.00
2022-12-18T03:26:17.171Z,102743.13
2022-12-18T03:26:52.397Z,102746.00
2022-12-18T03:27:25.911Z,102748.81
2022-12-18T03:28:00.794Z,102749.31
2022-12-18T03:28:35.473Z,102749.50
2022-12-18T03:29:14.999Z,102741.97
2022-12-18T03:29:50.161Z,102743.28
2022-12-18T03:30:27.702Z,102743.59
2022-12-18T03:31:01.540Z,102742.75
2022-12-18T03:31:36.743Z,102739.72
2022-12-18T03:32:32.255Z,102731.00
2022-12-18T03:33:12.243Z,102738.81
2022-12-18T03:33:56.703Z,102740.56
2022-12-18T03:34:36.975Z,102735.84
2022-12-18T03:35:13.044Z,102736.75
2022-12-18T03:35:45.316Z,102733.50
2022-12-18T03:36:18.406Z,102735.13
2022-12-18T03:36:50.098Z,102734.47
2022-12-18T03:37:23.716Z,102735.97
2022-12-18T03:37:57.563Z,102732.66
2022-12-18T03:38:32.009Z,102731.81
2022-12-18T03:39:03.774Z,102729.38
2022-12-18T03:39:39.279Z,102731.28
2022-12-18T03:40:11.279Z,102728.44
2022-12-18T03:40:56.214Z,102729.53
2022-12-18T03:41:34.768Z,102724.97
2022-12-18T03:42:52.302Z,102727.94
2022-12-18T03:44:02.138Z,102719.28
2022-12-18T03:44:41.447Z,102722.78
2022-12-18T03:45:28.137Z,102720.31
2022-12-18T03:46:07.950Z,102719.50
2022-12-18T03:47:01.963Z,102720.59
2022-12-18T03:48:03.971Z,102712.88
2022-12-18T03:48:46.431Z,102711.44
2022-12-18T03:49:48.926Z,102715.13
2022-12-18T03:50:23.891Z,102714.91
2022-12-18T03:51:02.136Z,102709.81
2022-12-18T03:51:51.530Z,102712.41
2022-12-18T03:52:39.938Z,102713.19
2022-12-18T03:53:33.349Z,102710.19
2022-12-18T03:54:06.387Z,102715.38
2022-12-18T03:54:47.428Z,102710.13
2022-12-18T03:55:22.854Z,102711.75
2022-12-18T03:56:01.296Z,102713.09
2022-12-18T03:56:41.375Z,102709.53
2022-12-18T03:57:22.348Z,102714.06
2022-12-18T03:57:56.617Z,102715.56
2022-12-18T03:58:29.979Z,102714.50
2022-12-18T03:59:12.619Z,102721.44
2022-12-18T03:59:45.342Z,102718.25
2022-12-18T04:00:19.601Z,102714.78
2022-12-18T04:01:03.941Z,102717.22
2022-12-18T04:01:39.489Z,102719.00
2022-12-18T04:02:11.641Z,102721.03
2022-12-18T04:02:58.248Z,102718.91
2022-12-18T04:03:40.318Z,102714.94
2022-12-18T04:04:14.065Z,102711.38
2022-12-18T04:04:51.643Z,102719.03
2022-12-18T04:05:26.192Z,102716.56
2022-12-18T04:06:00.116Z,102718.06
2022-12-18T04:06:36.608Z,102718.78
2022-12-18T04:07:08.594Z,102718.03
2022-12-18T04:07:43.957Z,102724.91
2022-12-18T04:08:16.206Z,102725.97
2022-12-18T04:08:55.880Z,102720.13
2022-12-18T04:09:31.460Z,102717.97
2022-12-18T04:10:05.972Z,102723.09
2022-12-18T04:10:38.132Z,102712.72
2022-12-18T04:11:09.809Z,102722.75
2022-12-18T04:11:44.726Z,102716.19
2022-12-18T04:12:18.336Z,102722.03
2022-12-18T04:12:56.815Z,102719.31
2022-12-18T04:13:31.966Z,102714.97
2022-12-18T04:14:07.332Z,102720.44
2022-12-18T04:14:39.655Z,102713.31
2022-12-18T04:15:13.998Z,102712.66
2022-12-18T04:15:45.784Z,102716.75
2022-12-18T04:16:20.154Z,102711.50
2022-12-18T04:16:55.178Z,102712.28
2022-12-18T04:17:32.686Z,102712.66
2022-12-18T04:18:04.666Z,102717.97
2022-12-18T04:18:43.256Z,102716.03
2022-12-18T04:19:15.455Z,102711.66
2022-12-18T04:19:49.302Z,102709.09
2022-12-18T04:20:21.642Z,102716.03
2022-12-18T04:20:53.343Z,102718.91
2022-12-18T04:21:25.853Z,102713.78
2022-12-18T04:21:58.294Z,102710.53
2022-12-18T04:22:29.902Z,102712.25
2022-12-18T04:23:04.451Z,102709.69
2022-12-18T04:23:39.131Z,102710.38
2022-12-18T04:24:10.932Z,102710.41
2022-12-18T04:24:47.019Z,102711.91
2022-12-18T04:25:30.059Z,102701.44
2022-12-18T04:26:16.709Z,102702.19
2022-12-18T04:27:07.607Z,102699.22
2022-12-18T04:27:46.260Z,102701.69
2022-12-18T04:28:19.276Z,102700.78
2022-12-18T04:28:50.979Z,102706.19
2022-12-18T04:29:22.538Z,102697.81
2022-12-18T04:29:54.043Z,102698.28
2022-12-18T04:30:25.529Z,102694.06
2022-12-18T04:30:57.257Z,102701.59
2022-12-18T04:31:29.311Z,102701.44
2022-12-18T04:32:01.636Z,102693.56
2022-12-18T04:32:35.505Z,102700.47
2022-12-18T04:33:22.850Z,102700.69
2022-12-18T04:33:54.472Z,102699.56
2022-12-18T04:34:25.990Z,102692.47
2022-12-18T04:34:58.883Z,102697.53
2022-12-18T04:35:31.047Z,102694.81
2022-12-18T04:36:02.690Z,102696.25
2022-12-18T04:36:34.590Z,102702.13
2022-12-18T04:37:06.235Z,102702.81
2022-12-18T04:37:38.032Z,102695.66
2022-12-18T04:38:13.386Z,102699.25
2022-12-18T04:38:45.248Z,102694.72
2022-12-18T04:39:20.258Z,102695.41
2022-12-18T04:39:54.059Z,102698.03
2022-12-18T04:40:32.097Z,102697.09
2022-12-18T04:41:08.616Z,102706.00
2022-12-18T04:41:40.884Z,102701.50
2022-12-18T04:42:13.386Z,102709.31
2022-12-18T04:42:44.921Z,102701.88
2022-12-18T04:43:16.697Z,102706.84
2022-12-18T04:43:48.348Z,102699.63
2022-12-18T04:44:19.890Z,102702.06
2022-12-18T04:44:54.038Z,102701.22
2022-12-18T04:45:25.531Z,102690.69
2022-12-18T04:46:07.468Z,102702.91
2022-12-18T04:46:39.324Z,102689.00
2022-12-18T04:47:10.995Z,102690.78
2022-12-18T04:47:42.582Z,102701.72
2022-12-18T04:48:14.087Z,102686.94
2022-12-18T04:48:46.968Z,102686.94
2022-12-18T04:49:18.560Z,102691.19
2022-12-18T04:49:50.071Z,102693.75
2022-12-18T04:50:21.552Z,102691.38
2022-12-18T04:50:53.038Z,102692.13
2022-12-18T04:51:26.783Z,102691.97
2022-12-18T04:52:04.549Z,102693.81
2022-12-18T04:52:38.935Z,102691.22
2022-12-18T04:53:10.443Z,102697.28
2022-12-18T04:53:42.245Z,102690.59
2022-12-18T04:54:13.928Z,102691.75
2022-12-18T04:54:45.431Z,102688.84
2022-12-18T04:55:17.072Z,102692.38
2022-12-18T04:55:48.550Z,102695.75
2022-12-18T04:56:20.297Z,102680.38
2022-12-18T04:56:51.866Z,102677.09
2022-12-18T04:57:23.375Z,102688.06
2022-12-18T04:57:55.136Z,102682.06
2022-12-18T04:58:26.589Z,102683.66
2022-12-18T04:58:58.438Z,102685.38
2022-12-18T04:59:30.063Z,102690.88
2022-12-18T05:00:01.816Z,102683.94
2022-12-18T05:00:33.410Z,102690.09
2022-12-18T05:01:04.934Z,102686.53
2022-12-18T05:01:36.507Z,102694.72
2022-12-18T05:02:08.504Z,102692.97
2022-12-18T05:02:40.154Z,102692.44
2022-12-18T05:03:11.842Z,102692.06
2022-12-18T05:03:44.113Z,102693.94
2022-12-18T05:04:16.098Z,102691.91
2022-12-18T05:04:47.857Z,102690.13
2022-12-18T05:05:19.353Z,102682.09
2022-12-18T05:05:52.033Z,102682.81
2022-12-18T05:06:23.535Z,102687.91
2022-12-18T05:06:55.060Z,102684.41
2022-12-18T05:07:26.683Z,102689.44
2022-12-18T05:07:58.327Z,102695.34
2022-12-18T05:08:29.915Z,102692.72
2022-12-18T05:09:01.389Z,102682.34
2022-12-18T05:09:32.911Z,102691.19
2022-12-18T05:10:07.914Z,102687.50
2022-12-18T05:10:39.470Z,102683.09
2022-12-18T05:11:15.026Z,102692.56
2022-12-18T05:11:47.898Z,102694.81
2022-12-18T05:12:19.384Z,102691.34
2022-12-18T05:13:00.360Z,102691.44
2022-12-18T05:13:41.050Z,102690.22
2022-12-18T05:14:12.934Z,102690.31
2022-12-18T05:14:47.085Z,102693.78
2022-12-18T05:15:18.543Z,102694.84
2022-12-18T05:15:53.110Z,102692.25
2022-12-18T05:16:24.870Z,102690.66
2022-12-18T05:17:00.653Z,102698.16
2022-12-18T05:17:32.704Z,102696.19
2022-12-18T05:18:04.794Z,102687.47
2022-12-18T05:18:36.329Z,102691.34
2022-12-18T05:19:07.853Z,102695.66
2022-12-18T05:19:39.409Z,102691.25
2022-12-18T05:20:11.483Z,102688.16
2022-12-18T05:20:43.024Z,102686.97
2022-12-18T05:21:14.533Z,102692.88
2022-12-18T05:21:46.042Z,102693.31
2022-12-18T05:22:18.032Z,102689.75
2022-12-18T05:22:49.548Z,102693.03
2022-12-18T05:23:23.018Z,102699.28
2022-12-18T05:23:54.610Z,102696.41
2022-12-18T05:24:26.100Z,102697.94
2022-12-18T05:24:57.632Z,102699.03
2022-12-18T05:25:29.164Z,102699.81
2022-12-18T05:26:02.775Z,102701.56
2022-12-18T05:26:34.295Z,102712.00
2022-12-18T05:27:05.856Z,102700.72
2022-12-18T05:27:37.407Z,102710.16
2022-12-18T05:28:08.917Z,102701.50
2022-12-18T05:28:40.458Z,102708.38
2022-12-18T05:29:13.280Z,102711.06
2022-12-18T05:29:45.572Z,102705.53
2022-12-18T05:30:17.446Z,102713.00
2022-12-18T05:30:51.636Z,102708.72
2022-12-18T05:31:23.410Z,102708.72
2022-12-18T05:31:54.968Z,102714.16
2022-12-18T05:32:26.529Z,102709.09
2022-12-18T05:32:58.436Z,102709.69
2022-12-18T05:33:32.977Z,102705.53
2022-12-18T05:34:04.506Z,102714.72
2022-12-18T05:34:36.222Z,102719.69
2022-12-18T05:35:09.875Z,102716.41
2022-12-18T05:35:41.422Z,102719.66
2022-12-18T05:36:13.125Z,102715.56
2022-12-18T05:36:44.674Z,102721.91
2022-12-18T05:37:16.501Z,102723.56
2022-12-18T05:37:48.000Z,102723.41
2022-12-18T05:38:20.426Z,102726.19
2022-12-18T05:38:51.909Z,102725.72
2022-12-18T05:39:23.478Z,102720.81
2022-12-18T05:39:54.967Z,102728.66
2022-12-18T05:40:26.887Z,102741.56
2022-12-18T05:40:59.779Z,102728.84
2022-12-18T05:41:31.270Z,102733.56
2022-12-18T05:42:02.776Z,102731.09
2022-12-18T05:42:34.290Z,102727.53
2022-12-18T05:43:05.774Z,102734.09
2022-12-18T05:43:38.792Z,102732.72
2022-12-18T05:44:10.551Z,102731.06
2022-12-18T05:44:42.074Z,102731.09
2022-12-18T05:45:13.563Z,102730.47
2022-12-18T05:45:45.367Z,102734.88
2022-12-18T05:46:25.298Z,102737.28
2022-12-18T05:46:56.946Z,102732.97
2022-12-18T05:47:29.666Z,102733.19
2022-12-18T05:48:01.194Z,102736.34
2022-12-18T05:48:32.741Z,102741.59
2022-12-18T05:49:04.325Z,102739.81
2022-12-18T05:49:35.817Z,102740.41
2022-12-18T05:50:08.220Z,102744.53
2022-12-18T05:50:41.302Z,102746.22
2022-12-18T05:51:15.540Z,102747.03
2022-12-18T05:51:47.171Z,102750.38
2022-12-18T05:52:18.674Z,102756.56
2022-12-18T05:52:50.211Z,102750.69
2022-12-18T05:53:21.774Z,102752.78
2022-12-18T05:53:53.290Z,102751.91
2022-12-18T05:54:24.980Z,102745.78
2022-12-18T05:54:56.483Z,102748.09
2022-12-18T05:55:27.968Z,102748.06
2022-12-18T05:56:03.701Z,102740.19
2022-12-18T05:56:35.255Z,102741.91
2022-12-18T05:57:06.863Z,102740.28
2022-12-18T05:57:38.342Z,102738.66
2022-12-18T05:58:10.930Z,102745.13
2022-12-18T05:58:42.789Z,102741.75
2022-12-18T05:59:14.415Z,102741.75
2022-12-18T05:59:45.963Z,102746.19
2022-12-18T06:00:17.667Z,102738.47
2022-12-18T06:00:49.156Z,102743.66
2022-12-18T06:01:24.645Z,102745.56
2022-12-18T06:01:56.274Z,102743.06
2022-12-18T06:02:27.944Z,102747.47
2022-12-18T06:03:00.440Z,102748.22
2022-12-18T06:03:34.079Z,102744.06
2022-12-18T06:04:05.823Z,102743.31
2022-12-18T06:04:38.370Z,102741.66
2022-12-18T06:05:10.123Z,102744.47
2022-12-18T06:05:44.870Z,102745.34
2022-12-18T06:06:22.320Z,102738.66
2022-12-18T06:06:53.861Z,102743.47
2022-12-18T06:07:25.425Z,102749.06
2022-12-18T06:07:56.915Z,102736.81
2022-12-18T06:08:28.483Z,102738.34
2022-12-18T06:09:00.184Z,102743.38
2022-12-18T06:09:31.739Z,102743.50
2022-12-18T06:10:03.463Z,102743.38
2022-12-18T06:10:35.205Z,102742.00
2022-12-18T06:11:06.687Z,102737.22
2022-12-18T06:11:38.758Z,102736.00
2022-12-18T06:12:10.366Z,102736.63
2022-12-18T06:12:41.986Z,102746.75
2022-12-18T06:13:13.631Z,102736.63
2022-12-18T06:13:45.230Z,102734.88
2022-12-18T06:14:18.202Z,102730.25
2022-12-18T06:14:49.694Z,102734.47
2022-12-18T06:15:21.187Z,102730.97
2022-12-18T06:15:52.725Z,102731.84
2022-12-18T06:16:24.322Z,102731.94
2022-12-18T06:16:55.979Z,102728.22
2022-12-18T06:17:31.440Z,102732.38
2022-12-18T06:18:02.942Z,102726.28
2022-12-18T06:18:35.062Z,102729.75
2022-12-18T06:19:09.153Z,102727.03
2022-12-18T06:19:40.660Z,102726.19
2022-12-18T06:20:12.224Z,102725.34
2022-12-18T06:20:43.962Z,102723.72
2022-12-18T06:21:17.414Z,102724.78
2022-12-18T06:21:50.192Z,102726.41
2022-12-18T06:22:21.736Z,102721.28
2022-12-18T06:22:53.357Z,102725.66
2022-12-18T06:23:27.534Z,102722.19
2022-12-18T06:23:59.787Z,102722.19
2022-12-18T06:24:31.539Z,102730.03
2022-12-18T06:25:03.354Z,102724.06
2022-12-18T06:25:34.963Z,102722.34
2022-12-18T06:26:08.348Z,102723.97
2022-12-18T06:26:47.389Z,102728.47
2022-12-18T06:27:18.922Z,102727.13
2022-12-18T06:27:50.404Z,102729.88
2022-12-18T06:28:22.247Z,102727.47
2022-12-18T06:28:53.763Z,102718.75
2022-12-18T06:29:26.518Z,102713.59
2022-12-18T06:29:58.038Z,102714.25
2022-12-18T06:30:29.671Z,102715.88
2022-12-18T06:31:01.244Z,102715.22
2022-12-18T06:31:32.888Z,102716.81
2022-12-18T06:32:12.360Z,102715.00
2022-12-18T06:32:43.937Z,102719.41
2022-12-18T06:33:16.682Z,102711.22
2022-12-18T06:33:49.292Z,102718.00
2022-12-18T06:34:20.824Z,102708.09
2022-12-18T06:34:52.573Z,102703.03
2022-12-18T06:35:24.500Z,102714.25
2022-12-18T06:36:04.640Z,102704.63
2022-12-18T06:36:36.124Z,102712.31
2022-12-18T06:37:08.976Z,102710.69
2022-12-18T06:37:40.451Z,102704.53
2022-12-18T06:38:12.012Z,102713.09
2022-12-18T06:38:44.699Z,102715.72